Time;durP1;ratioP1;P1;durP2;ratioP2;P2;SDS_P1;SDS_P2;PMS_P1;PMS_P2;Temp;Humidity;BMP_temperature;BMP_pressure;BME280_temperature;BME280_humidity;BME280_pressure;Samples;Min_cycle;Max_cycle;Signal;HPM_P1;HPM_P2
2023/08/15 00:00:54;;;;;;;6.75;4.38;;;18.30;91.50;;;;;;5056895;28;20037;-49
2023/08/15 00:03:21;;;;;;;6.53;4.57;;;18.40;91.70;;;;;;5067150;28;20385;-49
2023/08/15 00:05:50;;;;;;;7.85;4.25;;;18.40;91.70;;;;;;5070882;28;20029;-50
2023/08/15 00:08:17;;;;;;;7.95;4.07;;;18.40;91.80;;;;;;5040360;28;20036;-52
2023/08/15 00:10:43;;;;;;;5.60;4.25;;;18.50;91.90;;;;;;5070305;28;20033;-50
2023/08/15 00:13:10;;;;;;;5.13;4.07;;;18.50;92.00;;;;;;5073140;28;20024;-49
2023/08/15 00:15:36;;;;;;;5.45;4.30;;;18.50;91.90;;;;;;5073691;28;20036;-49
2023/08/15 00:18:02;;;;;;;6.25;4.50;;;18.50;91.90;;;;;;5071085;28;20020;-50
2023/08/15 00:20:29;;;;;;;6.43;4.25;;;18.50;91.90;;;;;;5073487;28;20048;-51
2023/08/15 00:22:59;;;;;;;8.00;4.45;;;18.50;91.80;;;;;;5073154;28;20086;-49
2023/08/15 00:25:25;;;;;;;10.90;4.90;;;18.40;91.70;;;;;;5074161;28;20020;-52
2023/08/15 00:27:52;;;;;;;15.05;4.85;;;18.40;91.70;;;;;;5073768;28;20028;-48
2023/08/15 00:30:18;;;;;;;6.25;4.60;;;18.40;91.70;;;;;;5073466;28;21051;-51
2023/08/15 00:32:46;;;;;;;9.50;5.00;;;18.40;91.70;;;;;;5074162;28;20372;-49
2023/08/15 00:35:11;;;;;;;7.70;4.47;;;18.40;91.80;;;;;;5073696;28;20024;-53
2023/08/15 00:37:37;;;;;;;7.60;4.78;;;18.40;91.90;;;;;;5072375;28;20143;-50
2023/08/15 00:40:04;;;;;;;9.50;4.55;;;18.40;91.90;;;;;;5074019;28;20037;-49
2023/08/15 00:42:30;;;;;;;7.07;5.03;;;18.40;92.00;;;;;;5070537;28;20033;-48
2023/08/15 00:44:58;;;;;;;7.53;5.15;;;18.40;92.00;;;;;;5073281;28;20098;-49
2023/08/15 00:47:25;;;;;;;8.02;4.90;;;18.40;92.00;;;;;;5054824;28;20028;-49
2023/08/15 00:49:56;;;;;;;7.13;4.68;;;18.50;92.00;;;;;;5074042;28;20025;-49
2023/08/15 00:52:22;;;;;;;10.70;5.82;;;18.40;92.00;;;;;;5070719;28;20024;-51
2023/08/15 00:54:50;;;;;;;10.45;5.55;;;18.50;92.00;;;;;;5056814;28;20108;-50
2023/08/15 00:57:23;;;;;;;7.47;4.53;;;18.50;92.10;;;;;;5054373;28;20054;-50
2023/08/15 00:59:50;;;;;;;5.90;4.10;;;18.50;92.10;;;;;;5054062;28;20033;-49
2023/08/15 01:02:16;;;;;;;10.23;5.10;;;18.50;92.10;;;;;;5070106;28;20033;-52
2023/08/15 01:04:43;;;;;;;8.13;4.15;;;18.50;92.10;;;;;;5074058;28;20064;-50
2023/08/15 01:07:10;;;;;;;7.55;5.55;;;18.60;92.10;;;;;;5073473;28;20060;-50
2023/08/15 01:09:37;;;;;;;7.15;5.30;;;18.50;92.10;;;;;;5060464;28;20033;-49
2023/08/15 01:12:27;;;;;;;9.32;5.40;;;18.60;92.10;;;;;;5056903;28;20350;-50
2023/08/15 01:15:00;;;;;;;8.57;5.10;;;18.60;92.00;;;;;;5047977;28;20705;-49
2023/08/15 01:17:37;;;;;;;9.77;5.43;;;18.50;92.00;;;;;;5072708;28;20842;-49
2023/08/15 01:20:08;;;;;;;8.85;6.38;;;18.50;91.90;;;;;;5072949;28;20029;-51
2023/08/15 01:22:38;;;;;;;9.77;6.15;;;18.40;91.80;;;;;;5072904;28;20029;-49
2023/08/15 01:25:05;;;;;;;8.93;6.70;;;18.40;91.80;;;;;;5038678;28;20029;-48
2023/08/15 01:27:32;;;;;;;11.23;5.82;;;18.40;91.80;;;;;;5036159;28;20032;-48
2023/08/15 01:30:00;;;;;;;10.18;5.95;;;18.40;91.80;;;;;;5036278;28;20025;-50
2023/08/15 01:32:35;;;;;;;14.63;7.38;;;18.40;91.70;;;;;;5071684;28;20345;-49
2023/08/15 01:35:14;;;;;;;12.48;7.55;;;18.40;91.70;;;;;;5069640;28;20040;-48
2023/08/15 01:37:45;;;;;;;8.45;6.40;;;18.40;91.80;;;;;;5072447;28;20044;-49
2023/08/15 01:40:14;;;;;;;9.68;7.00;;;18.40;91.80;;;;;;5062239;28;20045;-49
2023/08/15 01:42:41;;;;;;;11.85;7.05;;;18.40;91.70;;;;;;5040137;28;20025;-48
2023/08/15 01:45:10;;;;;;;9.02;7.00;;;18.40;91.70;;;;;;5045899;28;20032;-49
2023/08/15 01:47:37;;;;;;;8.88;6.55;;;18.40;91.70;;;;;;5071773;28;20029;-48
2023/08/15 01:50:04;;;;;;;11.95;7.30;;;18.40;91.70;;;;;;5071079;28;20106;-49
2023/08/15 01:52:31;;;;;;;7.70;6.65;;;18.40;91.70;;;;;;5073360;28;20055;-48
2023/08/15 01:54:58;;;;;;;8.75;6.75;;;18.40;91.70;;;;;;5071305;28;20029;-49
2023/08/15 01:57:24;;;;;;;10.32;8.25;;;18.40;91.70;;;;;;5051721;28;20158;-51
2023/08/15 01:59:56;;;;;;;8.13;7.15;;;18.40;91.60;;;;;;5069422;28;20028;-48
2023/08/15 02:02:22;;;;;;;9.80;7.93;;;18.40;91.60;;;;;;5064186;28;20452;-48
2023/08/15 02:04:50;;;;;;;9.73;7.25;;;18.30;91.60;;;;;;5073015;28;20075;-48
2023/08/15 02:07:19;;;;;;;14.32;7.60;;;18.30;91.60;;;;;;5071545;28;20036;-49
2023/08/15 02:09:46;;;;;;;10.82;7.30;;;18.30;91.60;;;;;;5065662;28;20040;-48
2023/08/15 02:12:15;;;;;;;6.85;6.07;;;18.20;91.60;;;;;;5070887;28;20036;-49
2023/08/15 02:14:42;;;;;;;8.32;6.85;;;18.20;91.60;;;;;;5072005;28;20154;-51
2023/08/15 02:17:09;;;;;;;9.15;8.00;;;18.20;91.70;;;;;;5071416;28;20035;-50
2023/08/15 02:19:34;;;;;;;9.15;7.80;;;18.20;91.60;;;;;;5053746;28;20477;-48
2023/08/15 02:22:01;;;;;;;10.90;7.65;;;18.20;91.60;;;;;;5071984;28;20070;-48
2023/08/15 02:24:29;;;;;;;7.45;6.75;;;18.10;91.60;;;;;;5067509;28;20024;-48
2023/08/15 02:26:56;;;;;;;10.77;7.88;;;18.10;91.60;;;;;;5072506;28;20044;-49
2023/08/15 02:29:25;;;;;;;9.18;7.40;;;18.00;91.60;;;;;;5071643;28;20029;-49
2023/08/15 02:31:51;;;;;;;9.55;7.47;;;18.00;91.60;;;;;;5071609;28;20032;-48
2023/08/15 02:34:18;;;;;;;11.38;8.73;;;18.00;91.60;;;;;;5071078;28;20047;-48
2023/08/15 02:36:46;;;;;;;9.63;7.82;;;18.00;91.60;;;;;;5072231;28;20361;-47
2023/08/15 02:39:15;;;;;;;12.90;9.00;;;17.90;91.60;;;;;;5060436;28;20025;-49
2023/08/15 02:41:42;;;;;;;11.13;9.37;;;17.90;91.70;;;;;;5052234;28;20048;-48
2023/08/15 02:44:12;;;;;;;12.23;8.85;;;17.90;91.80;;;;;;5070748;28;20291;-49
2023/08/15 02:46:39;;;;;;;13.13;10.32;;;17.90;91.80;;;;;;5065480;28;20032;-47
2023/08/15 02:49:05;;;;;;;12.45;9.35;;;17.90;91.80;;;;;;5069721;28;20033;-47
2023/08/15 02:51:34;;;;;;;10.32;8.90;;;17.90;91.80;;;;;;5053842;28;20036;-47
2023/08/15 02:54:03;;;;;;;9.83;8.83;;;17.90;91.80;;;;;;5062894;28;20082;-50
2023/08/15 02:56:30;;;;;;;12.43;10.23;;;17.80;91.80;;;;;;5072280;28;20025;-47
2023/08/15 02:58:57;;;;;;;10.90;9.85;;;17.80;91.80;;;;;;5072208;28;20024;-47
2023/08/15 03:01:24;;;;;;;11.63;9.52;;;17.80;91.80;;;;;;5052852;28;20165;-47
2023/08/15 03:03:50;;;;;;;10.02;9.00;;;17.80;91.80;;;;;;5050483;28;20123;-47
2023/08/15 03:06:17;;;;;;;10.77;9.55;;;17.80;91.90;;;;;;5059455;28;20047;-47
2023/08/15 03:08:46;;;;;;;12.40;10.98;;;17.80;91.90;;;;;;5070833;28;20570;-47
2023/08/15 03:11:12;;;;;;;14.07;10.18;;;17.80;91.90;;;;;;5071992;28;20036;-47
2023/08/15 03:13:43;;;;;;;11.85;9.13;;;17.80;91.90;;;;;;5070475;28;20039;-47
2023/08/15 03:16:10;;;;;;;11.98;10.40;;;17.80;91.90;;;;;;5061670;28;20107;-47
2023/08/15 03:18:37;;;;;;;13.07;11.02;;;17.80;91.90;;;;;;5055972;28;20025;-47
2023/08/15 03:21:05;;;;;;;15.27;11.73;;;17.80;91.90;;;;;;5058531;28;20028;-47
2023/08/15 03:23:31;;;;;;;15.25;11.43;;;17.80;92.00;;;;;;5052196;28;20032;-47
2023/08/15 03:26:02;;;;;;;12.23;10.77;;;17.80;92.00;;;;;;5069262;28;20461;-47
2023/08/15 03:28:32;;;;;;;12.40;10.45;;;17.80;92.10;;;;;;5053142;28;20035;-47
2023/08/15 03:31:08;;;;;;;10.55;9.38;;;17.80;92.10;;;;;;5047113;28;20097;-48
2023/08/15 03:33:35;;;;;;;14.27;11.05;;;17.80;92.10;;;;;;5051582;28;20331;-46
2023/08/15 03:36:02;;;;;;;11.05;9.73;;;17.80;92.00;;;;;;5055684;28;20103;-47
2023/08/15 03:38:31;;;;;;;16.63;10.82;;;17.80;92.00;;;;;;5049193;28;20179;-47
2023/08/15 03:41:03;;;;;;;11.52;10.00;;;17.70;92.00;;;;;;5050996;28;20033;-49
2023/08/15 03:43:31;;;;;;;14.07;12.30;;;17.70;92.00;;;;;;5043352;28;20033;-46
2023/08/15 03:46:00;;;;;;;11.45;10.10;;;17.70;91.90;;;;;;5044769;28;20033;-47
2023/08/15 03:48:31;;;;;;;13.95;11.07;;;17.70;92.00;;;;;;5050853;28;20450;-47
2023/08/15 03:50:59;;;;;;;14.25;12.85;;;17.60;92.00;;;;;;5050644;28;20446;-47
2023/08/15 03:53:31;;;;;;;13.85;12.18;;;17.70;92.20;;;;;;5051428;28;20033;-46
2023/08/15 03:56:01;;;;;;;16.38;12.70;;;17.70;92.30;;;;;;5049560;28;20041;-47
2023/08/15 03:58:28;;;;;;;14.02;12.52;;;17.70;92.30;;;;;;5052118;28;20029;-48
2023/08/15 04:00:55;;;;;;;12.57;11.27;;;17.70;92.20;;;;;;5051619;28;20029;-47
2023/08/15 04:03:22;;;;;;;16.70;12.55;;;17.60;92.20;;;;;;5043119;28;20033;-47
2023/08/15 04:05:51;;;;;;;16.38;11.90;;;17.70;92.20;;;;;;5049887;28;20044;-47
2023/08/15 04:08:20;;;;;;;14.38;12.13;;;17.70;92.20;;;;;;5054026;28;20439;-49
2023/08/15 04:10:49;;;;;;;14.45;12.75;;;17.70;92.30;;;;;;5037219;28;20044;-48
2023/08/15 04:13:16;;;;;;;17.15;12.20;;;17.60;92.30;;;;;;5054201;28;20034;-48
2023/08/15 04:15:45;;;;;;;15.98;13.25;;;17.70;92.30;;;;;;5048821;28;20037;-48
2023/08/15 04:18:12;;;;;;;14.30;12.90;;;17.70;92.30;;;;;;5052521;28;20033;-47
2023/08/15 04:20:41;;;;;;;13.32;12.02;;;17.70;92.40;;;;;;5053323;28;20036;-46
2023/08/15 04:23:09;;;;;;;15.02;12.77;;;17.80;92.40;;;;;;5022393;28;20048;-46
2023/08/15 04:25:37;;;;;;;12.02;10.80;;;17.80;92.30;;;;;;5034701;28;20026;-48
2023/08/15 04:28:04;;;;;;;13.63;12.20;;;17.80;92.30;;;;;;5043448;28;20025;-46
2023/08/15 04:30:31;;;;;;;15.45;13.00;;;17.80;92.30;;;;;;5038914;28;20823;-46
2023/08/15 04:32:58;;;;;;;14.00;12.20;;;17.90;92.30;;;;;;5054938;28;20049;-46
2023/08/15 04:35:29;;;;;;;15.27;12.43;;;17.90;92.40;;;;;;5051852;28;20021;-47
2023/08/15 04:37:56;;;;;;;15.15;13.10;;;17.90;92.30;;;;;;5040241;28;20060;-48
2023/08/15 04:40:31;;;;;;;15.50;13.27;;;17.90;92.30;;;;;;5073013;28;20020;-48
2023/08/15 04:42:58;;;;;;;17.58;13.50;;;18.00;92.30;;;;;;5057304;28;20070;-47
2023/08/15 04:45:25;;;;;;;14.25;12.23;;;18.10;92.20;;;;;;5073352;28;20037;-50
2023/08/15 04:47:52;;;;;;;15.50;12.38;;;18.10;92.30;;;;;;5073116;28;20032;-47
2023/08/15 04:50:17;;;;;;;15.60;11.38;;;18.20;92.30;;;;;;5072499;28;20031;-48
2023/08/15 04:52:47;;;;;;;16.00;12.50;;;18.20;92.30;;;;;;5072258;28;20040;-47
2023/08/15 04:55:14;;;;;;;11.68;10.25;;;18.30;92.30;;;;;;5072749;28;20046;-49
2023/08/15 04:57:41;;;;;;;12.07;10.77;;;18.40;92.30;;;;;;5074229;28;20039;-49
2023/08/15 05:00:09;;;;;;;12.52;11.20;;;18.50;92.30;;;;;;5072044;28;20032;-49
2023/08/15 05:02:35;;;;;;;12.63;11.38;;;18.60;92.20;;;;;;5062680;28;20111;-47
2023/08/15 05:05:05;;;;;;;13.48;11.32;;;18.60;92.10;;;;;;5064648;28;20078;-49
2023/08/15 05:07:33;;;;;;;13.38;10.77;;;18.70;92.10;;;;;;5073205;28;20075;-47
2023/08/15 05:10:00;;;;;;;17.17;10.98;;;18.80;92.00;;;;;;5071194;28;20120;-48
2023/08/15 05:12:25;;;;;;;13.85;12.27;;;18.90;92.00;;;;;;5072765;28;20020;-47
2023/08/15 05:14:52;;;;;;;12.35;10.57;;;18.90;91.90;;;;;;5050120;28;20035;-47
2023/08/15 05:17:19;;;;;;;12.30;11.10;;;19.00;91.90;;;;;;5072011;28;20059;-48
2023/08/15 05:19:44;;;;;;;13.70;10.73;;;19.00;91.90;;;;;;5072033;28;20036;-47
2023/08/15 05:22:10;;;;;;;14.15;11.25;;;19.10;91.90;;;;;;5073825;28;20024;-48
2023/08/15 05:24:37;;;;;;;16.02;13.70;;;19.20;92.00;;;;;;5064063;28;20115;-49
2023/08/15 05:27:04;;;;;;;15.80;13.68;;;19.20;91.90;;;;;;5055031;28;20104;-48
2023/08/15 05:29:31;;;;;;;12.00;10.82;;;19.20;91.90;;;;;;5069602;28;20052;-48
2023/08/15 05:31:59;;;;;;;13.13;10.85;;;19.20;91.90;;;;;;5057841;28;20041;-48
2023/08/15 05:34:26;;;;;;;15.70;11.23;;;19.30;91.90;;;;;;5066072;28;20021;-48
2023/08/15 05:36:52;;;;;;;13.98;11.57;;;19.30;91.80;;;;;;5072793;28;20100;-48
2023/08/15 05:39:19;;;;;;;13.90;12.15;;;19.30;91.80;;;;;;5054373;28;20422;-48
2023/08/15 05:41:44;;;;;;;12.40;11.10;;;19.30;91.80;;;;;;5071900;28;20027;-48
2023/08/15 05:44:11;;;;;;;13.32;11.98;;;19.20;91.80;;;;;;5072977;28;20408;-49
2023/08/15 05:46:41;;;;;;;14.75;12.35;;;19.20;91.90;;;;;;5066728;28;20033;-48
2023/08/15 05:49:10;;;;;;;13.13;10.57;;;19.20;92.00;;;;;;5073158;28;20420;-50
2023/08/15 05:51:37;;;;;;;17.58;13.27;;;19.20;92.00;;;;;;5051750;28;20032;-49
2023/08/15 05:54:04;;;;;;;21.67;13.35;;;19.20;92.10;;;;;;5035650;28;20112;-49
2023/08/15 05:56:30;;;;;;;16.08;12.40;;;19.20;92.20;;;;;;5069845;28;20458;-49
2023/08/15 05:58:59;;;;;;;16.02;13.05;;;19.30;92.40;;;;;;5064219;28;20453;-48
2023/08/15 06:01:29;;;;;;;14.73;13.20;;;19.30;92.60;;;;;;5065433;28;20040;-48
2023/08/15 06:03:54;;;;;;;14.30;12.90;;;19.40;92.60;;;;;;5066410;28;20082;-48
2023/08/15 06:06:22;;;;;;;15.32;13.73;;;19.40;92.70;;;;;;5070836;28;20469;-48
2023/08/15 06:08:49;;;;;;;18.23;15.77;;;19.50;92.70;;;;;;5052979;28;20086;-51
2023/08/15 06:11:16;;;;;;;17.63;15.82;;;19.50;92.60;;;;;;5047617;28;20054;-51
2023/08/15 06:13:43;;;;;;;18.73;15.48;;;19.60;92.70;;;;;;5050305;28;20492;-52
2023/08/15 06:16:12;;;;;;;20.52;17.27;;;19.60;92.70;;;;;;5063196;28;20428;-49
2023/08/15 06:18:38;;;;;;;18.95;15.48;;;19.60;92.70;;;;;;5071691;28;20037;-53
2023/08/15 06:21:06;;;;;;;19.13;15.82;;;19.70;92.80;;;;;;5054710;28;20467;-50
2023/08/15 06:23:33;;;;;;;21.92;16.83;;;19.60;92.80;;;;;;5068837;28;20449;-49
2023/08/15 06:26:00;;;;;;;19.23;15.93;;;19.70;92.80;;;;;;5069988;28;20024;-49
2023/08/15 06:28:29;;;;;;;20.00;18.10;;;19.70;92.80;;;;;;5071653;28;20017;-49
2023/08/15 06:30:57;;;;;;;20.08;18.08;;;19.70;93.00;;;;;;5042964;28;20037;-53
2023/08/15 06:33:24;;;;;;;26.20;22.15;;;19.80;93.00;;;;;;5072130;28;20372;-51
2023/08/15 06:35:49;;;;;;;21.40;18.70;;;19.80;93.10;;;;;;5071539;28;20621;-52
2023/08/15 06:38:16;;;;;;;26.23;22.00;;;19.90;93.20;;;;;;5072402;28;20497;-49
2023/08/15 06:40:43;;;;;;;18.88;16.85;;;19.90;93.10;;;;;;5070958;28;20441;-51
2023/08/15 06:43:09;;;;;;;20.15;17.92;;;19.90;93.10;;;;;;5054087;28;20032;-51
2023/08/15 06:45:39;;;;;;;20.60;18.52;;;19.90;93.00;;;;;;5063924;28;20028;-48
2023/08/15 06:48:06;;;;;;;18.05;16.25;;;19.90;93.10;;;;;;5063149;28;20469;-46
2023/08/15 06:50:33;;;;;;;19.30;17.33;;;19.90;93.00;;;;;;5049494;28;20037;-47
2023/08/15 06:53:00;;;;;;;18.25;16.35;;;19.90;93.10;;;;;;5053252;28;20453;-48
2023/08/15 06:55:26;;;;;;;20.85;18.77;;;19.80;93.30;;;;;;5072325;28;20029;-51
2023/08/15 06:57:53;;;;;;;20.27;18.15;;;19.80;93.40;;;;;;5071557;28;20020;-47
2023/08/15 07:00:20;;;;;;;20.38;17.40;;;19.80;93.50;;;;;;5045464;28;20029;-46
2023/08/15 07:02:50;;;;;;;22.95;17.25;;;19.70;93.60;;;;;;5055074;28;20029;-49
2023/08/15 07:05:17;;;;;;;20.67;17.80;;;19.70;93.80;;;;;;5053645;28;20033;-47
2023/08/15 07:07:44;;;;;;;22.92;17.35;;;19.70;94.00;;;;;;5052374;28;20440;-46
2023/08/15 07:10:10;;;;;;;20.17;17.75;;;19.60;94.10;;;;;;5070803;28;20035;-48
2023/08/15 07:12:40;;;;;;;19.38;17.48;;;19.60;94.20;;;;;;5071162;28;20353;-47
2023/08/15 07:15:06;;;;;;;19.00;17.05;;;19.50;94.30;;;;;;5070436;28;20039;-47
2023/08/15 07:17:33;;;;;;;20.50;18.05;;;19.50;94.40;;;;;;5071798;28;20426;-48
2023/08/15 07:20:00;;;;;;;21.20;18.92;;;19.50;94.50;;;;;;5071088;28;20024;-47
2023/08/15 07:22:29;;;;;;;18.70;16.90;;;19.50;94.60;;;;;;5072092;28;20114;-47
2023/08/15 07:24:56;;;;;;;19.02;17.15;;;19.40;94.70;;;;;;5044795;28;20161;-48
2023/08/15 07:27:27;;;;;;;20.20;17.63;;;19.40;94.70;;;;;;5072106;28;20033;-47
2023/08/15 07:29:54;;;;;;;21.90;19.63;;;19.40;94.80;;;;;;5053010;28;20044;-47
2023/08/15 07:32:21;;;;;;;19.13;17.02;;;19.40;94.80;;;;;;5062605;28;20028;-46
2023/08/15 07:34:48;;;;;;;20.90;18.95;;;19.40;94.80;;;;;;5075757;28;20090;-46
2023/08/15 07:37:15;;;;;;;20.27;18.23;;;19.40;94.80;;;;;;5075201;28;20058;-49
2023/08/15 07:39:44;;;;;;;20.92;18.85;;;19.40;94.90;;;;;;5075094;28;20524;-46
2023/08/15 07:42:11;;;;;;;21.70;19.67;;;19.30;94.90;;;;;;5073165;28;20079;-47
2023/08/15 07:44:41;;;;;;;19.50;17.50;;;19.30;94.90;;;;;;5070165;28;20029;-45
2023/08/15 07:47:07;;;;;;;18.55;16.65;;;19.30;95.10;;;;;;5074512;28;20070;-45
2023/08/15 07:49:34;;;;;;;19.42;17.42;;;19.30;95.10;;;;;;5075743;28;20111;-44
2023/08/15 07:52:01;;;;;;;20.92;18.77;;;19.40;95.20;;;;;;5063265;28;20039;-44
2023/08/15 07:54:28;;;;;;;19.83;17.83;;;19.40;95.20;;;;;;5056739;28;20021;-45
2023/08/15 07:56:55;;;;;;;19.23;17.33;;;19.40;95.10;;;;;;5065516;28;20059;-45
2023/08/15 07:59:24;;;;;;;20.25;18.35;;;19.40;95.10;;;;;;5059604;28;20040;-45
2023/08/15 08:01:51;;;;;;;20.45;18.33;;;19.40;95.00;;;;;;5056899;28;20046;-45
2023/08/15 08:04:24;;;;;;;20.42;18.27;;;19.40;95.20;;;;;;5060508;28;20032;-45
2023/08/15 08:06:53;;;;;;;17.35;15.73;;;19.50;95.20;;;;;;5044302;28;20137;-45
2023/08/15 08:09:19;;;;;;;20.13;18.10;;;19.50;95.10;;;;;;5075263;28;20037;-45
2023/08/15 08:11:48;;;;;;;19.80;17.50;;;19.50;95.00;;;;;;5063207;28;20025;-45
2023/08/15 08:14:17;;;;;;;22.13;19.47;;;19.70;95.20;;;;;;5073818;28;20037;-46
2023/08/15 08:16:51;;;;;;;20.33;18.38;;;19.80;95.00;;;;;;5074000;28;20723;-48
2023/08/15 08:19:18;;;;;;;20.00;18.10;;;19.90;94.90;;;;;;5074559;28;20047;-45
2023/08/15 08:21:43;;;;;;;19.85;17.77;;;20.10;94.90;;;;;;5055851;28;20063;-46
2023/08/15 08:24:09;;;;;;;20.35;18.45;;;20.10;94.50;;;;;;5074980;28;20063;-46
2023/08/15 08:26:35;;;;;;;17.83;16.05;;;20.20;94.30;;;;;;5056010;28;20119;-47
2023/08/15 08:29:02;;;;;;;24.38;20.10;;;20.30;94.20;;;;;;5073243;28;20032;-46
2023/08/15 08:31:29;;;;;;;21.58;19.38;;;20.40;94.00;;;;;;5068233;28;20057;-46
2023/08/15 08:33:58;;;;;;;20.60;18.55;;;20.70;94.10;;;;;;5037221;28;20067;-48
2023/08/15 08:36:25;;;;;;;18.48;16.58;;;21.00;93.50;;;;;;5073754;28;20041;-48
2023/08/15 08:38:54;;;;;;;18.83;15.75;;;21.10;92.70;;;;;;5074629;28;20044;-49
2023/08/15 08:41:22;;;;;;;17.08;14.55;;;21.30;92.20;;;;;;5073880;28;20196;-53
2023/08/15 08:43:47;;;;;;;17.25;13.18;;;21.40;91.40;;;;;;5056333;28;20120;-51
2023/08/15 08:46:17;;;;;;;16.58;12.95;;;21.30;90.30;;;;;;5067502;28;20112;-53
2023/08/15 08:48:45;;;;;;;12.18;10.98;;;21.20;90.40;;;;;;5046092;28;20051;-51
2023/08/15 08:51:18;;;;;;;15.90;12.35;;;21.30;90.90;;;;;;5074181;28;20116;-54
2023/08/15 08:53:43;;;;;;;13.93;9.75;;;21.30;90.10;;;;;;5056547;28;20024;-52
2023/08/15 08:56:10;;;;;;;12.07;8.98;;;21.40;90.10;;;;;;5073904;28;20044;-56
2023/08/15 08:58:40;;;;;;;13.50;7.95;;;21.70;90.30;;;;;;5072031;28;20498;-54
2023/08/15 09:01:09;;;;;;;7.32;5.22;;;22.10;90.00;;;;;;5073100;28;20128;-51
2023/08/15 09:03:38;;;;;;;9.75;6.32;;;22.30;87.10;;;;;;5074270;28;20141;-52
2023/08/15 09:06:03;;;;;;;9.45;4.75;;;22.50;86.70;;;;;;5071442;28;20099;-52
2023/08/15 09:08:30;;;;;;;8.13;5.35;;;22.60;84.40;;;;;;5073882;28;20028;-55
2023/08/15 09:10:57;;;;;;;12.35;6.32;;;22.90;84.80;;;;;;5073907;28;20689;-53
2023/08/15 09:13:26;;;;;;;11.57;5.85;;;23.10;82.60;;;;;;5069022;28;20028;-52
2023/08/15 09:15:58;;;;;;;9.03;4.50;;;23.20;82.60;;;;;;5054110;28;20457;-54
2023/08/15 09:18:35;;;;;;;10.98;4.68;;;23.20;81.50;;;;;;5072226;28;20353;-59
2023/08/15 09:21:05;;;;;;;8.70;5.00;;;23.20;83.20;;;;;;5073779;28;20029;-53
2023/08/15 09:23:32;;;;;;;9.60;4.45;;;23.50;82.00;;;;;;5056522;28;20031;-55
2023/08/15 09:26:14;;;;;;;8.48;4.93;;;24.00;83.90;;;;;;5073608;28;20017;-55
2023/08/15 09:28:42;;;;;;;9.93;4.10;;;24.40;80.10;;;;;;5049838;28;20036;-54
2023/08/15 09:31:10;;;;;;;12.95;4.88;;;24.20;78.30;;;;;;5053691;28;20171;-55
2023/08/15 09:33:38;;;;;;;8.48;4.03;;;23.90;77.70;;;;;;5073282;28;20020;-54
2023/08/15 09:36:09;;;;;;;8.80;4.57;;;24.10;79.00;;;;;;5054405;28;20035;-54
2023/08/15 09:38:41;;;;;;;8.45;3.92;;;24.20;77.80;;;;;;5068351;28;20036;-51
2023/08/15 09:41:11;;;;;;;7.55;3.58;;;23.90;78.50;;;;;;5054235;28;20106;-57
2023/08/15 09:43:58;;;;;;;;;;;23.90;78.40;;;;;;5071868;28;20101;-55
2023/08/15 09:46:25;;;;;;;9.23;3.65;;;23.60;78.30;;;;;;5069083;28;19913;-52
2023/08/15 09:48:54;;;;;;;7.60;3.30;;;23.70;79.10;;;;;;5054981;28;20465;-56
2023/08/15 09:51:22;;;;;;;4.97;2.63;;;23.60;78.10;;;;;;5051578;28;20033;-56
2023/08/15 09:53:49;;;;;;;7.07;3.28;;;23.70;78.20;;;;;;5053398;28;20020;-55
2023/08/15 09:56:17;;;;;;;6.72;3.25;;;23.80;78.50;;;;;;5056329;28;20322;-52
2023/08/15 09:58:47;;;;;;;7.88;3.40;;;24.00;78.50;;;;;;5070995;28;20103;-56
2023/08/15 10:01:16;;;;;;;;;;;24.00;76.90;;;;;;5070644;28;20040;-55
2023/08/15 10:03:46;;;;;;;9.60;3.63;;;24.10;77.20;;;;;;5053420;28;20009;-57
2023/08/15 10:06:13;;;;;;;9.43;2.97;;;24.60;78.70;;;;;;5053569;28;20036;-56
2023/08/15 10:08:42;;;;;;;6.53;2.13;;;24.50;75.10;;;;;;5072938;28;20029;-51
2023/08/15 10:11:10;;;;;;;7.07;3.20;;;24.70;76.00;;;;;;5050091;28;20036;-55
2023/08/15 10:13:38;;;;;;;5.40;2.85;;;24.90;76.90;;;;;;5066035;28;20098;-53
2023/08/15 10:16:08;;;;;;;4.75;2.65;;;24.90;73.90;;;;;;5072139;28;20357;-54
2023/08/15 10:18:35;;;;;;;5.18;2.10;;;25.20;74.10;;;;;;5073102;28;20090;-57
2023/08/15 10:21:04;;;;;;;8.13;1.90;;;25.30;74.40;;;;;;5071856;28;20035;-53
2023/08/15 10:23:35;;;;;;;5.50;1.65;;;25.50;72.70;;;;;;5071901;28;20029;-56
2023/08/15 10:26:02;;;;;;;6.10;1.70;;;25.40;71.60;;;;;;5070951;28;20025;-56
2023/08/15 10:28:33;;;;;;;6.07;2.20;;;25.70;73.10;;;;;;5072722;28;20047;-57
2023/08/15 10:31:00;;;;;;;8.10;2.13;;;25.80;71.10;;;;;;5065746;28;20029;-58
2023/08/15 10:33:31;;;;;;;7.30;1.83;;;25.40;69.90;;;;;;5064808;28;20036;-57
2023/08/15 10:36:00;;;;;;;5.47;1.73;;;25.40;71.20;;;;;;5071872;28;20044;-54
2023/08/15 10:38:35;;;;;;;5.50;2.20;;;25.50;69.00;;;;;;5072252;28;20053;-57
2023/08/15 10:41:16;;;;;;;6.68;2.28;;;25.70;70.70;;;;;;5060173;28;20052;-56
2023/08/15 10:43:50;;;;;;;6.25;2.03;;;25.70;69.60;;;;;;5053817;28;20047;-56
2023/08/15 10:46:23;;;;;;;4.65;1.90;;;25.70;69.10;;;;;;5066416;28;20037;-57
2023/08/15 10:48:54;;;;;;;5.03;1.70;;;25.60;70.30;;;;;;5048490;28;20684;-54
2023/08/15 10:51:31;;;;;;;5.82;2.10;;;25.40;69.70;;;;;;5054451;28;20453;-57
2023/08/15 10:54:03;;;;;;;5.20;1.90;;;25.50;70.50;;;;;;5071447;28;20037;-55
2023/08/15 10:56:35;;;;;;;5.82;1.60;;;25.20;70.20;;;;;;5069241;28;20473;-55
2023/08/15 10:59:07;;;;;;;4.18;1.73;;;24.80;68.00;;;;;;5071306;28;20048;-58
2023/08/15 11:01:36;;;;;;;6.03;1.98;;;24.70;70.10;;;;;;5061926;28;20083;-53
2023/08/15 11:04:04;;;;;;;5.63;1.85;;;24.50;69.60;;;;;;5070349;28;20032;-52
2023/08/15 11:06:30;;;;;;;5.05;2.08;;;24.50;70.90;;;;;;5070327;28;20051;-55
2023/08/15 11:08:58;;;;;;;4.03;1.30;;;24.70;71.10;;;;;;5070010;28;20036;-56
2023/08/15 11:11:31;;;;;;;3.03;1.23;;;24.90;69.30;;;;;;5053226;28;20074;-56
2023/08/15 11:13:59;;;;;;;3.83;1.35;;;24.90;68.60;;;;;;5051654;28;20021;-56
2023/08/15 11:16:25;;;;;;;5.88;1.30;;;24.90;68.40;;;;;;5071055;28;20396;-58
2023/08/15 11:18:57;;;;;;;5.10;1.75;;;25.00;69.10;;;;;;5061816;28;20100;-54
2023/08/15 11:21:27;;;;;;;6.75;1.67;;;25.40;69.40;;;;;;5051703;28;20056;-54
2023/08/15 11:24:00;;;;;;;6.43;1.70;;;25.10;67.00;;;;;;5047166;28;20033;-56
2023/08/15 11:26:28;;;;;;;5.05;1.83;;;25.00;68.70;;;;;;5052304;28;20032;-57
2023/08/15 11:28:55;;;;;;;5.45;1.60;;;25.20;68.40;;;;;;5068058;28;20056;-56
2023/08/15 11:31:23;;;;;;;5.18;1.80;;;25.10;68.30;;;;;;5068228;28;20035;-58
2023/08/15 11:33:53;;;;;;;4.68;2.33;;;25.00;68.70;;;;;;5061997;28;20480;-57
2023/08/15 11:36:21;;;;;;;7.60;2.17;;;24.90;67.70;;;;;;5070526;28;20036;-56
2023/08/15 11:38:51;;;;;;;6.15;2.20;;;24.50;68.60;;;;;;5068888;28;20063;-56
2023/08/15 11:41:22;;;;;;;6.72;2.33;;;24.30;69.90;;;;;;5071793;28;20029;-58
2023/08/15 11:43:49;;;;;;;4.43;2.33;;;24.20;70.30;;;;;;5071872;28;20476;-57
2023/08/15 11:46:16;;;;;;;5.18;1.60;;;24.30;71.10;;;;;;5069496;28;20122;-55
2023/08/15 11:48:45;;;;;;;4.60;1.90;;;24.30;70.50;;;;;;5071345;28;20035;-55
2023/08/15 11:51:19;;;;;;;5.50;1.92;;;24.30;70.80;;;;;;5070311;28;20020;-57
2023/08/15 11:53:53;;;;;;;5.85;2.03;;;24.40;71.90;;;;;;5068824;28;20445;-58
2023/08/15 11:56:20;;;;;;;6.70;2.08;;;24.40;71.60;;;;;;5048833;28;20139;-57
2023/08/15 11:58:50;;;;;;;6.55;2.50;;;24.30;71.40;;;;;;5051695;28;20021;-54
2023/08/15 12:01:17;;;;;;;;;;;23.90;71.50;;;;;;5057293;28;20445;-57
2023/08/15 12:03:46;;;;;;;5.25;2.47;;;23.80;72.60;;;;;;5051398;28;19916;-56
2023/08/15 12:06:14;;;;;;;4.82;2.40;;;23.70;72.90;;;;;;5061944;28;20028;-56
2023/08/15 12:08:44;;;;;;;7.18;2.05;;;23.80;73.50;;;;;;5059116;28;20044;-57
2023/08/15 12:11:11;;;;;;;8.52;2.25;;;23.90;75.40;;;;;;5053030;28;20055;-56
2023/08/15 12:13:41;;;;;;;7.72;2.53;;;24.40;74.40;;;;;;5069497;28;20331;-55
2023/08/15 12:16:11;;;;;;;5.03;1.88;;;24.60;73.20;;;;;;5069086;28;20035;-55
2023/08/15 12:18:39;;;;;;;7.72;2.47;;;24.60;72.30;;;;;;5057485;28;20334;-55
2023/08/15 12:21:07;;;;;;;5.28;1.90;;;24.80;72.80;;;;;;5072998;28;20395;-58
2023/08/15 12:23:34;;;;;;;5.30;2.10;;;24.60;71.80;;;;;;5069126;28;20361;-57
2023/08/15 12:25:59;;;;;;;5.72;2.00;;;24.60;70.80;;;;;;5041673;28;20067;-55
2023/08/15 12:28:27;;;;;;;4.57;1.60;;;24.80;72.90;;;;;;5053419;28;20534;-58
2023/08/15 12:30:54;;;;;;;6.28;2.05;;;25.10;72.70;;;;;;5059125;28;20121;-54
2023/08/15 12:33:19;;;;;;;5.55;2.00;;;25.20;70.20;;;;;;5073526;28;20064;-57
2023/08/15 12:35:46;;;;;;;6.72;2.67;;;25.30;70.20;;;;;;5074858;28;20330;-58
2023/08/15 12:38:13;;;;;;;7.03;1.90;;;25.20;68.90;;;;;;5051039;28;20045;-56
2023/08/15 12:40:41;;;;;;;5.68;1.70;;;25.40;68.50;;;;;;5073668;28;20033;-54
2023/08/15 12:43:08;;;;;;;6.47;2.35;;;25.20;67.30;;;;;;5074816;28;20025;-54